sensor_id;sensor_type;location;lat;lon;timestamp;P1;durP1;ratioP1;P2;durP2;ratioP2
4106;SDS011;21906;50.812;7.132;2023-06-10T00:01:37;13.90;;;12.90;;
4106;SDS011;21906;50.812;7.132;2023-06-10T00:04:03;14.43;;;13.23;;
4106;SDS011;21906;50.812;7.132;2023-06-10T00:06:29;13.23;;;12.10;;
4106;SDS011;21906;50.812;7.132;2023-06-10T00:09:00;14.53;;;13.30;;
4106;SDS011;21906;50.812;7.132;2023-06-10T00:11:33;14.00;;;12.90;;
4106;SDS011;21906;50.812;7.132;2023-06-10T00:13:58;13.70;;;12.60;;
4106;SDS011;21906;50.812;7.132;2023-06-10T00:16:24;13.37;;;12.37;;
4106;SDS011;21906;50.812;7.132;2023-06-10T00:18:50;13.27;;;12.27;;
4106;SDS011;21906;50.812;7.132;2023-06-10T00:21:16;15.03;;;13.83;;
4106;SDS011;21906;50.812;7.132;2023-06-10T00:23:44;15.30;;;13.90;;
4106;SDS011;21906;50.812;7.132;2023-06-10T00:26:10;14.13;;;12.97;;
4106;SDS011;21906;50.812;7.132;2023-06-10T00:28:35;13.73;;;12.60;;
4106;SDS011;21906;50.812;7.132;2023-06-10T00:31:01;15.20;;;13.80;;
4106;SDS011;21906;50.812;7.132;2023-06-10T00:33:29;14.03;;;12.63;;
4106;SDS011;21906;50.812;7.132;2023-06-10T00:35:55;13.53;;;12.50;;
4106;SDS011;21906;50.812;7.132;2023-06-10T00:38:21;14.23;;;13.07;;
4106;SDS011;21906;50.812;7.132;2023-06-10T00:40:46;14.57;;;13.33;;
4106;SDS011;21906;50.812;7.132;2023-06-10T00:43:12;13.90;;;12.80;;
4106;SDS011;21906;50.812;7.132;2023-06-10T00:45:38;14.43;;;13.23;;
4106;SDS011;21906;50.812;7.132;2023-06-10T00:48:04;14.13;;;13.00;;
4106;SDS011;21906;50.812;7.132;2023-06-10T00:50:30;14.43;;;13.33;;
4106;SDS011;21906;50.812;7.132;2023-06-10T00:52:56;13.70;;;12.57;;
4106;SDS011;21906;50.812;7.132;2023-06-10T00:55:23;13.50;;;12.40;;
4106;SDS011;21906;50.812;7.132;2023-06-10T00:57:49;15.03;;;13.47;;
4106;SDS011;21906;50.812;7.132;2023-06-10T01:00:16;14.00;;;12.90;;
4106;SDS011;21906;50.812;7.132;2023-06-10T01:02:42;13.53;;;12.47;;
4106;SDS011;21906;50.812;7.132;2023-06-10T01:05:08;14.60;;;13.30;;
4106;SDS011;21906;50.812;7.132;2023-06-10T01:07:40;14.57;;;13.27;;
4106;SDS011;21906;50.812;7.132;2023-06-10T01:10:16;15.20;;;14.00;;
4106;SDS011;21906;50.812;7.132;2023-06-10T01:12:45;15.60;;;14.30;;
4106;SDS011;21906;50.812;7.132;2023-06-10T01:15:17;13.63;;;12.43;;
4106;SDS011;21906;50.812;7.132;2023-06-10T01:17:56;15.27;;;13.87;;
4106;SDS011;21906;50.812;7.132;2023-06-10T01:20:24;15.00;;;13.80;;
4106;SDS011;21906;50.812;7.132;2023-06-10T01:22:52;14.60;;;13.30;;
4106;SDS011;21906;50.812;7.132;2023-06-10T01:25:22;14.10;;;12.93;;
4106;SDS011;21906;50.812;7.132;2023-06-10T01:28:14;15.70;;;14.30;;
4106;SDS011;21906;50.812;7.132;2023-06-10T01:33:18;15.03;;;13.70;;
4106;SDS011;21906;50.812;7.132;2023-06-10T01:35:50;14.60;;;13.40;;
4106;SDS011;21906;50.812;7.132;2023-06-10T01:38:16;14.57;;;13.40;;
4106;SDS011;21906;50.812;7.132;2023-06-10T01:40:47;14.37;;;13.07;;
4106;SDS011;21906;50.812;7.132;2023-06-10T01:43:14;14.60;;;13.40;;
4106;SDS011;21906;50.812;7.132;2023-06-10T01:45:40;15.80;;;14.50;;
4106;SDS011;21906;50.812;7.132;2023-06-10T01:48:05;14.97;;;13.77;;
4106;SDS011;21906;50.812;7.132;2023-06-10T01:50:31;15.37;;;14.00;;
4106;SDS011;21906;50.812;7.132;2023-06-10T01:52:58;15.27;;;14.07;;
4106;SDS011;21906;50.812;7.132;2023-06-10T01:55:24;15.17;;;13.87;;
4106;SDS011;21906;50.812;7.132;2023-06-10T01:57:50;14.67;;;13.27;;
4106;SDS011;21906;50.812;7.132;2023-06-10T02:00:16;15.13;;;13.70;;
4106;SDS011;21906;50.812;7.132;2023-06-10T02:02:42;16.30;;;14.80;;
4106;SDS011;21906;50.812;7.132;2023-06-10T02:05:08;15.30;;;13.90;;
4106;SDS011;21906;50.812;7.132;2023-06-10T02:07:34;15.57;;;14.07;;
4106;SDS011;21906;50.812;7.132;2023-06-10T02:09:59;14.93;;;13.50;;
4106;SDS011;21906;50.812;7.132;2023-06-10T02:12:25;15.30;;;14.10;;
4106;SDS011;21906;50.812;7.132;2023-06-10T02:14:51;15.40;;;13.80;;
4106;SDS011;21906;50.812;7.132;2023-06-10T02:17:16;14.77;;;13.47;;
4106;SDS011;21906;50.812;7.132;2023-06-10T02:19:42;14.73;;;13.53;;
4106;SDS011;21906;50.812;7.132;2023-06-10T02:22:08;14.17;;;12.97;;
4106;SDS011;21906;50.812;7.132;2023-06-10T02:24:35;14.37;;;13.13;;
4106;SDS011;21906;50.812;7.132;2023-06-10T02:27:03;14.90;;;13.33;;
4106;SDS011;21906;50.812;7.132;2023-06-10T02:29:32;15.57;;;13.93;;
4106;SDS011;21906;50.812;7.132;2023-06-10T02:31:58;13.50;;;12.30;;
4106;SDS011;21906;50.812;7.132;2023-06-10T02:34:24;14.23;;;13.03;;
4106;SDS011;21906;50.812;7.132;2023-06-10T02:36:50;14.27;;;13.17;;
4106;SDS011;21906;50.812;7.132;2023-06-10T02:39:16;14.17;;;13.07;;
4106;SDS011;21906;50.812;7.132;2023-06-10T02:41:42;13.87;;;12.70;;
4106;SDS011;21906;50.812;7.132;2023-06-10T02:44:07;14.80;;;13.50;;
4106;SDS011;21906;50.812;7.132;2023-06-10T02:46:33;14.90;;;13.70;;
4106;SDS011;21906;50.812;7.132;2023-06-10T02:48:59;14.43;;;13.30;;
4106;SDS011;21906;50.812;7.132;2023-06-10T02:51:25;14.07;;;12.90;;
4106;SDS011;21906;50.812;7.132;2023-06-10T02:53:51;14.23;;;13.13;;
4106;SDS011;21906;50.812;7.132;2023-06-10T02:56:16;15.63;;;14.33;;
4106;SDS011;21906;50.812;7.132;2023-06-10T02:58:42;14.43;;;13.30;;
4106;SDS011;21906;50.812;7.132;2023-06-10T03:01:08;13.67;;;12.60;;
4106;SDS011;21906;50.812;7.132;2023-06-10T03:03:35;15.43;;;14.20;;
4106;SDS011;21906;50.812;7.132;2023-06-10T03:06:01;15.43;;;14.30;;
4106;SDS011;21906;50.812;7.132;2023-06-10T03:08:28;15.53;;;14.17;;
4106;SDS011;21906;50.812;7.132;2023-06-10T03:10:54;14.90;;;13.70;;
4106;SDS011;21906;50.812;7.132;2023-06-10T03:13:19;15.97;;;14.43;;
4106;SDS011;21906;50.812;7.132;2023-06-10T03:15:46;14.90;;;13.60;;
4106;SDS011;21906;50.812;7.132;2023-06-10T03:18:11;15.83;;;14.57;;
4106;SDS011;21906;50.812;7.132;2023-06-10T03:20:37;15.80;;;14.47;;
4106;SDS011;21906;50.812;7.132;2023-06-10T03:23:04;15.80;;;14.50;;
4106;SDS011;21906;50.812;7.132;2023-06-10T03:25:31;14.47;;;13.17;;
4106;SDS011;21906;50.812;7.132;2023-06-10T03:27:57;15.87;;;14.40;;
4106;SDS011;21906;50.812;7.132;2023-06-10T03:30:23;16.03;;;14.63;;
4106;SDS011;21906;50.812;7.132;2023-06-10T03:32:49;15.17;;;13.70;;
4106;SDS011;21906;50.812;7.132;2023-06-10T03:35:14;15.53;;;14.23;;
4106;SDS011;21906;50.812;7.132;2023-06-10T03:37:40;15.07;;;13.77;;
4106;SDS011;21906;50.812;7.132;2023-06-10T03:40:07;15.10;;;13.90;;
4106;SDS011;21906;50.812;7.132;2023-06-10T03:42:34;14.93;;;13.70;;
4106;SDS011;21906;50.812;7.132;2023-06-10T03:45:00;15.93;;;14.53;;
4106;SDS011;21906;50.812;7.132;2023-06-10T03:47:26;14.63;;;13.30;;
4106;SDS011;21906;50.812;7.132;2023-06-10T03:49:51;16.03;;;14.40;;
4106;SDS011;21906;50.812;7.132;2023-06-10T03:52:18;16.50;;;15.10;;
4106;SDS011;21906;50.812;7.132;2023-06-10T03:54:43;13.63;;;12.50;;
4106;SDS011;21906;50.812;7.132;2023-06-10T03:57:09;14.17;;;12.97;;
4106;SDS011;21906;50.812;7.132;2023-06-10T03:59:35;15.33;;;13.93;;
4106;SDS011;21906;50.812;7.132;2023-06-10T04:02:00;15.10;;;13.80;;
4106;SDS011;21906;50.812;7.132;2023-06-10T04:04:26;15.37;;;14.03;;
4106;SDS011;21906;50.812;7.132;2023-06-10T04:06:52;15.20;;;13.80;;
4106;SDS011;21906;50.812;7.132;2023-06-10T04:09:18;15.27;;;13.90;;
4106;SDS011;21906;50.812;7.132;2023-06-10T04:11:43;14.73;;;13.10;;
4106;SDS011;21906;50.812;7.132;2023-06-10T04:14:09;15.77;;;14.43;;
4106;SDS011;21906;50.812;7.132;2023-06-10T04:16:35;15.23;;;13.70;;
4106;SDS011;21906;50.812;7.132;2023-06-10T04:19:00;14.50;;;13.30;;
4106;SDS011;21906;50.812;7.132;2023-06-10T04:21:26;15.43;;;14.03;;
4106;SDS011;21906;50.812;7.132;2023-06-10T04:23:52;15.00;;;13.80;;
4106;SDS011;21906;50.812;7.132;2023-06-10T04:26:18;15.07;;;13.73;;
4106;SDS011;21906;50.812;7.132;2023-06-10T04:28:44;15.67;;;14.37;;
4106;SDS011;21906;50.812;7.132;2023-06-10T04:31:09;15.13;;;13.93;;
4106;SDS011;21906;50.812;7.132;2023-06-10T04:33:35;16.27;;;14.77;;
4106;SDS011;21906;50.812;7.132;2023-06-10T04:36:01;16.17;;;14.77;;
4106;SDS011;21906;50.812;7.132;2023-06-10T04:38:27;15.73;;;14.33;;
4106;SDS011;21906;50.812;7.132;2023-06-10T04:40:53;16.00;;;14.70;;
4106;SDS011;21906;50.812;7.132;2023-06-10T04:43:18;15.50;;;14.13;;
4106;SDS011;21906;50.812;7.132;2023-06-10T04:45:44;15.70;;;14.40;;
4106;SDS011;21906;50.812;7.132;2023-06-10T04:48:10;16.10;;;14.60;;
4106;SDS011;21906;50.812;7.132;2023-06-10T04:50:36;15.27;;;13.97;;
4106;SDS011;21906;50.812;7.132;2023-06-10T04:53:02;15.80;;;14.40;;
4106;SDS011;21906;50.812;7.132;2023-06-10T04:55:28;15.17;;;13.97;;
4106;SDS011;21906;50.812;7.132;2023-06-10T04:57:54;13.87;;;12.77;;
4106;SDS011;21906;50.812;7.132;2023-06-10T05:00:20;15.00;;;13.60;;
4106;SDS011;21906;50.812;7.132;2023-06-10T05:02:46;15.30;;;13.93;;
4106;SDS011;21906;50.812;7.132;2023-06-10T05:05:15;15.20;;;13.90;;
4106;SDS011;21906;50.812;7.132;2023-06-10T05:07:42;13.90;;;12.80;;
4106;SDS011;21906;50.812;7.132;2023-06-10T05:10:08;15.30;;;13.93;;
4106;SDS011;21906;50.812;7.132;2023-06-10T05:12:34;14.10;;;12.80;;
4106;SDS011;21906;50.812;7.132;2023-06-10T05:14:59;13.87;;;12.60;;
4106;SDS011;21906;50.812;7.132;2023-06-10T05:17:25;13.37;;;12.27;;
4106;SDS011;21906;50.812;7.132;2023-06-10T05:19:51;14.07;;;12.87;;
4106;SDS011;21906;50.812;7.132;2023-06-10T05:22:18;14.37;;;12.93;;
4106;SDS011;21906;50.812;7.132;2023-06-10T05:24:44;13.80;;;12.63;;
4106;SDS011;21906;50.812;7.132;2023-06-10T05:27:09;13.80;;;12.63;;
4106;SDS011;21906;50.812;7.132;2023-06-10T05:29:35;13.63;;;12.53;;
4106;SDS011;21906;50.812;7.132;2023-06-10T05:32:01;14.27;;;13.00;;
4106;SDS011;21906;50.812;7.132;2023-06-10T05:34:31;13.37;;;12.27;;
4106;SDS011;21906;50.812;7.132;2023-06-10T05:36:57;14.67;;;13.17;;
4106;SDS011;21906;50.812;7.132;2023-06-10T05:39:23;14.07;;;12.63;;
4106;SDS011;21906;50.812;7.132;2023-06-10T05:41:48;13.37;;;12.17;;
4106;SDS011;21906;50.812;7.132;2023-06-10T05:44:14;13.47;;;12.17;;
4106;SDS011;21906;50.812;7.132;2023-06-10T05:46:40;14.00;;;12.77;;
4106;SDS011;21906;50.812;7.132;2023-06-10T05:49:05;14.50;;;12.07;;
4106;SDS011;21906;50.812;7.132;2023-06-10T05:51:31;12.40;;;11.40;;
4106;SDS011;21906;50.812;7.132;2023-06-10T05:53:57;12.77;;;11.67;;
4106;SDS011;21906;50.812;7.132;2023-06-10T05:56:22;12.60;;;11.50;;
4106;SDS011;21906;50.812;7.132;2023-06-10T05:58:48;11.87;;;10.87;;
4106;SDS011;21906;50.812;7.132;2023-06-10T06:01:14;13.20;;;12.10;;
4106;SDS011;21906;50.812;7.132;2023-06-10T06:03:40;13.07;;;11.97;;
4106;SDS011;21906;50.812;7.132;2023-06-10T06:06:06;12.33;;;11.43;;
4106;SDS011;21906;50.812;7.132;2023-06-10T06:08:32;12.57;;;11.57;;
4106;SDS011;21906;50.812;7.132;2023-06-10T06:10:57;12.20;;;11.27;;
4106;SDS011;21906;50.812;7.132;2023-06-10T06:13:23;12.53;;;11.30;;
4106;SDS011;21906;50.812;7.132;2023-06-10T06:15:49;11.87;;;10.97;;
4106;SDS011;21906;50.812;7.132;2023-06-10T06:18:15;11.93;;;10.97;;
4106;SDS011;21906;50.812;7.132;2023-06-10T06:20:40;11.73;;;10.80;;
4106;SDS011;21906;50.812;7.132;2023-06-10T06:23:06;11.90;;;11.00;;
4106;SDS011;21906;50.812;7.132;2023-06-10T06:25:34;12.33;;;11.23;;
4106;SDS011;21906;50.812;7.132;2023-06-10T06:28:01;13.90;;;12.70;;
4106;SDS011;21906;50.812;7.132;2023-06-10T06:30:27;12.40;;;11.17;;
4106;SDS011;21906;50.812;7.132;2023-06-10T06:32:52;11.77;;;10.87;;
4106;SDS011;21906;50.812;7.132;2023-06-10T06:35:18;11.10;;;10.30;;
4106;SDS011;21906;50.812;7.132;2023-06-10T06:37:44;12.63;;;11.57;;
4106;SDS011;21906;50.812;7.132;2023-06-10T06:40:10;11.27;;;10.37;;
4106;SDS011;21906;50.812;7.132;2023-06-10T06:42:36;11.60;;;10.70;;
4106;SDS011;21906;50.812;7.132;2023-06-10T06:45:01;11.17;;;10.37;;
4106;SDS011;21906;50.812;7.132;2023-06-10T06:47:27;11.90;;;10.03;;
4106;SDS011;21906;50.812;7.132;2023-06-10T06:49:53;11.33;;;10.53;;
4106;SDS011;21906;50.812;7.132;2023-06-10T06:52:18;11.50;;;10.63;;
4106;SDS011;21906;50.812;7.132;2023-06-10T06:54:44;10.47;;;9.67;;
4106;SDS011;21906;50.812;7.132;2023-06-10T06:57:10;10.20;;;9.30;;
4106;SDS011;21906;50.812;7.132;2023-06-10T06:59:36;10.37;;;9.47;;
4106;SDS011;21906;50.812;7.132;2023-06-10T07:02:02;10.53;;;9.50;;
4106;SDS011;21906;50.812;7.132;2023-06-10T07:04:28;10.33;;;9.60;;
4106;SDS011;21906;50.812;7.132;2023-06-10T07:06:54;11.63;;;10.63;;
4106;SDS011;21906;50.812;7.132;2023-06-10T07:09:19;11.03;;;10.13;;
4106;SDS011;21906;50.812;7.132;2023-06-10T07:11:45;11.57;;;10.57;;
4106;SDS011;21906;50.812;7.132;2023-06-10T07:14:11;10.67;;;9.90;;
4106;SDS011;21906;50.812;7.132;2023-06-10T07:16:36;10.80;;;9.70;;
4106;SDS011;21906;50.812;7.132;2023-06-10T07:19:02;11.37;;;10.27;;
4106;SDS011;21906;50.812;7.132;2023-06-10T07:21:32;10.80;;;9.80;;
4106;SDS011;21906;50.812;7.132;2023-06-10T07:23:59;10.43;;;9.63;;
4106;SDS011;21906;50.812;7.132;2023-06-10T07:26:25;10.57;;;9.70;;
4106;SDS011;21906;50.812;7.132;2023-06-10T07:28:50;10.00;;;9.10;;
4106;SDS011;21906;50.812;7.132;2023-06-10T07:31:16;10.07;;;9.27;;
4106;SDS011;21906;50.812;7.132;2023-06-10T07:33:42;10.00;;;9.30;;
4106;SDS011;21906;50.812;7.132;2023-06-10T07:36:08;10.63;;;9.73;;
4106;SDS011;21906;50.812;7.132;2023-06-10T07:38:34;11.00;;;10.00;;
4106;SDS011;21906;50.812;7.132;2023-06-10T07:41:00;9.97;;;9.27;;
4106;SDS011;21906;50.812;7.132;2023-06-10T07:43:26;10.50;;;9.80;;
4106;SDS011;21906;50.812;7.132;2023-06-10T07:45:52;10.60;;;9.80;;
4106;SDS011;21906;50.812;7.132;2023-06-10T07:48:18;10.37;;;9.57;;
4106;SDS011;21906;50.812;7.132;2023-06-10T07:50:46;10.50;;;9.70;;
4106;SDS011;21906;50.812;7.132;2023-06-10T07:53:12;9.57;;;8.87;;
4106;SDS011;21906;50.812;7.132;2023-06-10T07:55:37;9.43;;;8.67;;
4106;SDS011;21906;50.812;7.132;2023-06-10T07:58:03;10.10;;;9.30;;
4106;SDS011;21906;50.812;7.132;2023-06-10T08:00:29;10.20;;;9.30;;
4106;SDS011;21906;50.812;7.132;2023-06-10T08:02:55;10.43;;;9.63;;
4106;SDS011;21906;50.812;7.132;2023-06-10T08:05:21;10.73;;;9.83;;
4106;SDS011;21906;50.812;7.132;2023-06-10T08:07:46;9.30;;;8.60;;
4106;SDS011;21906;50.812;7.132;2023-06-10T08:10:12;10.77;;;9.77;;
4106;SDS011;21906;50.812;7.132;2023-06-10T08:12:38;11.30;;;10.20;;
4106;SDS011;21906;50.812;7.132;2023-06-10T08:15:06;10.10;;;9.33;;
4106;SDS011;21906;50.812;7.132;2023-06-10T08:17:32;10.87;;;9.97;;
4106;SDS011;21906;50.812;7.132;2023-06-10T08:19:58;9.80;;;9.00;;
4106;SDS011;21906;50.812;7.132;2023-06-10T08:22:24;10.40;;;9.70;;
4106;SDS011;21906;50.812;7.132;2023-06-10T08:24:50;10.40;;;9.60;;
4106;SDS011;21906;50.812;7.132;2023-06-10T08:27:15;10.60;;;9.80;;
4106;SDS011;21906;50.812;7.132;2023-06-10T08:29:41;10.70;;;9.90;;
4106;SDS011;21906;50.812;7.132;2023-06-10T08:32:07;10.77;;;9.97;;
4106;SDS011;21906;50.812;7.132;2023-06-10T08:34:33;10.90;;;10.20;;
4106;SDS011;21906;50.812;7.132;2023-06-10T08:37:00;11.07;;;10.27;;
4106;SDS011;21906;50.812;7.132;2023-06-10T08:39:27;10.90;;;10.10;;
4106;SDS011;21906;50.812;7.132;2023-06-10T08:44:31;10.70;;;9.70;;
4106;SDS011;21906;50.812;7.132;2023-06-10T08:47:00;11.77;;;10.70;;
4106;SDS011;21906;50.812;7.132;2023-06-10T08:49:34;11.33;;;10.33;;
4106;SDS011;21906;50.812;7.132;2023-06-10T08:52:04;10.60;;;9.90;;
4106;SDS011;21906;50.812;7.132;2023-06-10T08:54:33;11.13;;;10.13;;
4106;SDS011;21906;50.812;7.132;2023-06-10T08:57:03;11.60;;;10.70;;
4106;SDS011;21906;50.812;7.132;2023-06-10T08:59:31;11.60;;;10.50;;
4106;SDS011;21906;50.812;7.132;2023-06-10T09:01:57;11.30;;;10.40;;
4106;SDS011;21906;50.812;7.132;2023-06-10T09:04:24;11.07;;;10.30;;
4106;SDS011;21906;50.812;7.132;2023-06-10T09:06:51;10.20;;;9.50;;
4106;SDS011;21906;50.812;7.132;2023-06-10T09:09:18;11.00;;;10.20;;
4106;SDS011;21906;50.812;7.132;2023-06-10T09:11:47;11.13;;;10.30;;
4106;SDS011;21906;50.812;7.132;2023-06-10T09:14:13;11.23;;;10.30;;
4106;SDS011;21906;50.812;7.132;2023-06-10T09:16:39;11.00;;;10.20;;
4106;SDS011;21906;50.812;7.132;2023-06-10T09:19:06;10.13;;;9.43;;
4106;SDS011;21906;50.812;7.132;2023-06-10T09:21:33;10.97;;;10.13;;
4106;SDS011;21906;50.812;7.132;2023-06-10T09:23:59;11.27;;;10.37;;
4106;SDS011;21906;50.812;7.132;2023-06-10T09:26:28;10.43;;;9.70;;
4106;SDS011;21906;50.812;7.132;2023-06-10T09:28:57;10.97;;;10.27;;
4106;SDS011;21906;50.812;7.132;2023-06-10T09:31:29;11.33;;;10.53;;
4106;SDS011;21906;50.812;7.132;2023-06-10T09:34:04;11.57;;;10.63;;
4106;SDS011;21906;50.812;7.132;2023-06-10T09:36:35;11.30;;;10.50;;
4106;SDS011;21906;50.812;7.132;2023-06-10T09:39:01;11.87;;;10.90;;
4106;SDS011;21906;50.812;7.132;2023-06-10T09:41:34;11.83;;;10.70;;
4106;SDS011;21906;50.812;7.132;2023-06-10T09:44:01;11.07;;;10.27;;
4106;SDS011;21906;50.812;7.132;2023-06-10T09:46:34;10.70;;;9.90;;
4106;SDS011;21906;50.812;7.132;2023-06-10T09:48:59;10.90;;;10.00;;
4106;SDS011;21906;50.812;7.132;2023-06-10T09:51:25;10.60;;;9.93;;
4106;SDS011;21906;50.812;7.132;2023-06-10T09:53:51;10.90;;;10.20;;
4106;SDS011;21906;50.812;7.132;2023-06-10T09:56:17;11.30;;;10.60;;
4106;SDS011;21906;50.812;7.132;2023-06-10T09:58:44;11.20;;;10.40;;
4106;SDS011;21906;50.812;7.132;2023-06-10T10:01:12;10.77;;;10.07;;
4106;SDS011;21906;50.812;7.132;2023-06-10T10:03:43;10.07;;;9.47;;
4106;SDS011;21906;50.812;7.132;2023-06-10T10:06:14;10.93;;;9.93;;
4106;SDS011;21906;50.812;7.132;2023-06-10T10:08:41;9.87;;;9.27;;
4106;SDS011;21906;50.812;7.132;2023-06-10T10:11:07;11.27;;;10.40;;
4106;SDS011;21906;50.812;7.132;2023-06-10T10:13:33;11.10;;;10.40;;
4106;SDS011;21906;50.812;7.132;2023-06-10T10:16:01;10.57;;;9.87;;
4106;SDS011;21906;50.812;7.132;2023-06-10T10:18:31;11.77;;;10.87;;
4106;SDS011;21906;50.812;7.132;2023-06-10T10:21:00;10.33;;;9.73;;
4106;SDS011;21906;50.812;7.132;2023-06-10T10:23:39;11.27;;;10.37;;
4106;SDS011;21906;50.812;7.132;2023-06-10T10:26:21;11.37;;;10.27;;
4106;SDS011;21906;50.812;7.132;2023-06-10T10:28:51;10.33;;;9.73;;
4106;SDS011;21906;50.812;7.132;2023-06-10T10:31:24;11.30;;;10.30;;
4106;SDS011;21906;50.812;7.132;2023-06-10T10:33:55;11.33;;;10.53;;
4106;SDS011;21906;50.812;7.132;2023-06-10T10:36:24;11.60;;;10.70;;
4106;SDS011;21906;50.812;7.132;2023-06-10T10:38:50;11.70;;;10.83;;
4106;SDS011;21906;50.812;7.132;2023-06-10T10:41:17;11.23;;;10.43;;
4106;SDS011;21906;50.812;7.132;2023-06-10T10:43:44;11.73;;;10.90;;
4106;SDS011;21906;50.812;7.132;2023-06-10T10:46:12;10.30;;;9.63;;
4106;SDS011;21906;50.812;7.132;2023-06-10T10:48:39;11.50;;;10.70;;
4106;SDS011;21906;50.812;7.132;2023-06-10T10:51:08;10.90;;;10.30;;
4106;SDS011;21906;50.812;7.132;2023-06-10T10:53:37;11.30;;;10.50;;
4106;SDS011;21906;50.812;7.132;2023-06-10T10:56:16;10.90;;;10.10;;
4106;SDS011;21906;50.812;7.132;2023-06-10T11:01:40;10.70;;;10.00;;
4106;SDS011;21906;50.812;7.132;2023-06-10T11:04:07;11.30;;;10.40;;
4106;SDS011;21906;50.812;7.132;2023-06-10T11:06:36;10.80;;;9.80;;
4106;SDS011;21906;50.812;7.132;2023-06-10T11:09:24;10.40;;;9.80;;
4106;SDS011;21906;50.812;7.132;2023-06-10T11:11:52;10.10;;;9.30;;
4106;SDS011;21906;50.812;7.132;2023-06-10T11:14:27;11.63;;;10.70;;
4106;SDS011;21906;50.812;7.132;2023-06-10T11:16:56;11.20;;;10.50;;
4106;SDS011;21906;50.812;7.132;2023-06-10T11:19:31;11.67;;;10.87;;
4106;SDS011;21906;50.812;7.132;2023-06-10T11:22:00;11.07;;;10.37;;
4106;SDS011;21906;50.812;7.132;2023-06-10T11:24:41;11.67;;;10.47;;
4106;SDS011;21906;50.812;7.132;2023-06-10T11:29:58;11.10;;;10.20;;
4106;SDS011;21906;50.812;7.132;2023-06-10T11:32:43;10.70;;;10.10;;
4106;SDS011;21906;50.812;7.132;2023-06-10T11:35:09;10.70;;;9.90;;
4106;SDS011;21906;50.812;7.132;2023-06-10T11:37:35;10.03;;;9.33;;
4106;SDS011;21906;50.812;7.132;2023-06-10T11:40:01;11.43;;;10.43;;
4106;SDS011;21906;50.812;7.132;2023-06-10T11:42:28;10.60;;;9.83;;
4106;SDS011;21906;50.812;7.132;2023-06-10T11:44:54;10.80;;;10.10;;
4106;SDS011;21906;50.812;7.132;2023-06-10T11:47:20;11.53;;;10.50;;
4106;SDS011;21906;50.812;7.132;2023-06-10T11:49:55;10.43;;;9.63;;
4106;SDS011;21906;50.812;7.132;2023-06-10T11:52:30;10.07;;;9.37;;
4106;SDS011;21906;50.812;7.132;2023-06-10T11:54:58;9.30;;;8.70;;
4106;SDS011;21906;50.812;7.132;2023-06-10T11:57:24;10.57;;;9.80;;
4106;SDS011;21906;50.812;7.132;2023-06-10T11:59:50;10.80;;;10.10;;
4106;SDS011;21906;50.812;7.132;2023-06-10T12:02:16;9.83;;;9.13;;
4106;SDS011;21906;50.812;7.132;2023-06-10T12:04:42;10.40;;;9.70;;
4106;SDS011;21906;50.812;7.132;2023-06-10T12:07:08;9.60;;;9.00;;
4106;SDS011;21906;50.812;7.132;2023-06-10T12:09:36;9.20;;;8.70;;
4106;SDS011;21906;50.812;7.132;2023-06-10T12:12:05;10.63;;;9.03;;
4106;SDS011;21906;50.812;7.132;2023-06-10T12:14:51;9.97;;;9.27;;
4106;SDS011;21906;50.812;7.132;2023-06-10T12:17:19;10.53;;;9.73;;
4106;SDS011;21906;50.812;7.132;2023-06-10T12:20:02;10.53;;;9.73;;
4106;SDS011;21906;50.812;7.132;2023-06-10T12:22:39;10.27;;;9.53;;
4106;SDS011;21906;50.812;7.132;2023-06-10T12:25:06;10.40;;;9.70;;
4106;SDS011;21906;50.812;7.132;2023-06-10T12:27:33;10.10;;;9.40;;
4106;SDS011;21906;50.812;7.132;2023-06-10T12:30:03;10.07;;;9.37;;
4106;SDS011;21906;50.812;7.132;2023-06-10T12:32:37;9.87;;;9.17;;
4106;SDS011;21906;50.812;7.132;2023-06-10T12:35:08;9.77;;;9.17;;
4106;SDS011;21906;50.812;7.132;2023-06-10T12:37:35;9.90;;;9.40;;
4106;SDS011;21906;50.812;7.132;2023-06-10T12:40:04;9.73;;;9.07;;
4106;SDS011;21906;50.812;7.132;2023-06-10T12:42:34;9.20;;;8.60;;
4106;SDS011;21906;50.812;7.132;2023-06-10T12:45:01;8.97;;;8.37;;
4106;SDS011;21906;50.812;7.132;2023-06-10T12:47:29;10.60;;;9.30;;
4106;SDS011;21906;50.812;7.132;2023-06-10T12:50:00;9.60;;;9.00;;
4106;SDS011;21906;50.812;7.132;2023-06-10T12:52:27;8.93;;;8.13;;
4106;SDS011;21906;50.812;7.132;2023-06-10T12:54:53;9.33;;;8.67;;
4106;SDS011;21906;50.812;7.132;2023-06-10T12:57:20;9.47;;;8.90;;
4106;SDS011;21906;50.812;7.132;2023-06-10T12:59:46;9.37;;;8.77;;
4106;SDS011;21906;50.812;7.132;2023-06-10T13:02:17;9.80;;;9.20;;
4106;SDS011;21906;50.812;7.132;2023-06-10T13:04:48;9.03;;;8.53;;
4106;SDS011;21906;50.812;7.132;2023-06-10T13:07:17;9.00;;;8.30;;
4106;SDS011;21906;50.812;7.132;2023-06-10T13:09:44;9.23;;;8.73;;
4106;SDS011;21906;50.812;7.132;2023-06-10T13:12:10;8.47;;;7.90;;
4106;SDS011;21906;50.812;7.132;2023-06-10T13:14:37;9.43;;;8.63;;
4106;SDS011;21906;50.812;7.132;2023-06-10T13:17:05;9.70;;;8.90;;
4106;SDS011;21906;50.812;7.132;2023-06-10T13:19:32;9.37;;;8.63;;
4106;SDS011;21906;50.812;7.132;2023-06-10T13:21:58;8.30;;;7.90;;
4106;SDS011;21906;50.812;7.132;2023-06-10T13:24:24;8.07;;;7.67;;
4106;SDS011;21906;50.812;7.132;2023-06-10T13:26:50;9.57;;;8.80;;
4106;SDS011;21906;50.812;7.132;2023-06-10T13:29:15;8.77;;;8.33;;
4106;SDS011;21906;50.812;7.132;2023-06-10T13:31:41;8.53;;;7.77;;
4106;SDS011;21906;50.812;7.132;2023-06-10T13:34:07;9.23;;;8.13;;
4106;SDS011;21906;50.812;7.132;2023-06-10T13:36:33;8.87;;;8.37;;
4106;SDS011;21906;50.812;7.132;2023-06-10T13:38:59;9.37;;;8.67;;
4106;SDS011;21906;50.812;7.132;2023-06-10T13:41:25;9.50;;;8.90;;
4106;SDS011;21906;50.812;7.132;2023-06-10T13:43:53;9.20;;;8.70;;
4106;SDS011;21906;50.812;7.132;2023-06-10T13:46:19;8.43;;;7.83;;
4106;SDS011;21906;50.812;7.132;2023-06-10T13:48:46;9.17;;;8.60;;
4106;SDS011;21906;50.812;7.132;2023-06-10T13:51:13;9.03;;;8.27;;
4106;SDS011;21906;50.812;7.132;2023-06-10T13:53:38;8.00;;;7.60;;
4106;SDS011;21906;50.812;7.132;2023-06-10T13:56:04;8.70;;;8.20;;
4106;SDS011;21906;50.812;7.132;2023-06-10T13:58:30;8.63;;;8.13;;
4106;SDS011;21906;50.812;7.132;2023-06-10T14:00:56;8.70;;;8.20;;
4106;SDS011;21906;50.812;7.132;2023-06-10T14:03:23;8.33;;;7.83;;
4106;SDS011;21906;50.812;7.132;2023-06-10T14:05:49;8.53;;;8.13;;
4106;SDS011;21906;50.812;7.132;2023-06-10T14:08:15;8.47;;;7.97;;
4106;SDS011;21906;50.812;7.132;2023-06-10T14:10:42;9.20;;;8.60;;
4106;SDS011;21906;50.812;7.132;2023-06-10T14:13:08;9.67;;;8.87;;
4106;SDS011;21906;50.812;7.132;2023-06-10T14:15:34;9.17;;;8.57;;
4106;SDS011;21906;50.812;7.132;2023-06-10T14:18:00;8.60;;;8.10;;
4106;SDS011;21906;50.812;7.132;2023-06-10T14:20:26;8.70;;;8.20;;
4106;SDS011;21906;50.812;7.132;2023-06-10T14:22:56;8.37;;;7.97;;
4106;SDS011;21906;50.812;7.132;2023-06-10T14:25:22;9.67;;;9.07;;
4106;SDS011;21906;50.812;7.132;2023-06-10T14:27:48;9.30;;;8.30;;
4106;SDS011;21906;50.812;7.132;2023-06-10T14:30:14;9.50;;;8.90;;
4106;SDS011;21906;50.812;7.132;2023-06-10T14:32:41;9.83;;;8.97;;
4106;SDS011;21906;50.812;7.132;2023-06-10T14:35:07;9.07;;;8.57;;
4106;SDS011;21906;50.812;7.132;2023-06-10T14:37:33;9.43;;;8.80;;
4106;SDS011;21906;50.812;7.132;2023-06-10T14:39:59;8.50;;;8.00;;
4106;SDS011;21906;50.812;7.132;2023-06-10T14:42:25;10.00;;;9.40;;
4106;SDS011;21906;50.812;7.132;2023-06-10T14:44:50;9.30;;;8.53;;
4106;SDS011;21906;50.812;7.132;2023-06-10T14:47:16;8.20;;;7.70;;
4106;SDS011;21906;50.812;7.132;2023-06-10T14:49:42;9.10;;;8.50;;
4106;SDS011;21906;50.812;7.132;2023-06-10T14:52:09;8.23;;;7.63;;